Weather reports worldwide

Advertisment
Bologna, Italy (16132): temperature & dewpoint: 17.04.2018 01:00:00 - 23.04.2018 01:00:00 (CEST)Bologna, Italy (16132): reduced air pressure: 17.04.2018 01:00:00 - 23.04.2018 01:00:00 (CEST)Bologna, Italy (16132): precipitation: 17.04.2018 01:00:00 - 23.04.2018 01:00:00 (CEST)
Date & Time tt [°C] td [°C] ppp [hPa] rr [mm]
23.04.2018 01:00:00 - - - -
23.04.2018 00:00:00 16,5 11,4 1017,3 -
22.04.2018 23:00:00 18,0 11,7 1017,2 -
22.04.2018 22:00:00 19,0 11,5 1017,1 -
22.04.2018 21:00:00 20,7 11,6 1016,5 -
22.04.2018 20:00:00 22,6 12,8 1015,9 0,0
22.04.2018 19:00:00 24,3 13,4 1015,7 -
22.04.2018 18:00:00 26,1 12,8 1015,6 -
22.04.2018 17:00:00 26,4 10,1 1015,9 -
22.04.2018 16:00:00 26,6 9,9 1016,4 -
22.04.2018 15:00:00 26,0 9,3 1017,1 -
22.04.2018 14:00:00 25,2 9,8 1017,5 0,0
22.04.2018 13:00:00 24,1 11,1 1017,9 -
22.04.2018 12:00:00 22,6 11,9 1018,3 -
22.04.2018 11:00:00 20,5 11,6 1018,8 -
22.04.2018 10:00:00 17,8 10,4 1018,9 -
22.04.2018 09:00:00 15,3 10,0 1018,8 -
22.04.2018 08:00:00 13,1 9,5 1018,7 0,0
22.04.2018 07:00:00 11,8 7,9 1018,3 -
22.04.2018 06:00:00 12,9 8,3 1018,0 -
22.04.2018 05:00:00 13,5 8,5 1018,1 -
22.04.2018 04:00:00 13,7 9,1 1018,3 -
22.04.2018 03:00:00 12,8 7,2 1018,4 -
22.04.2018 02:00:00 13,7 7,2 1018,7 0,0
22.04.2018 01:00:00 15,0 7,5 1018,7 -
22.04.2018 00:00:00 16,9 9,3 1018,7 -
21.04.2018 23:00:00 18,4 8,3 1018,5 -
21.04.2018 22:00:00 19,5 8,7 1018,4 -
21.04.2018 21:00:00 21,4 9,9 1018,0 -
21.04.2018 20:00:00 24,0 12,0 1017,6 0,0
21.04.2018 19:00:00 25,6 11,3 1017,4 -
21.04.2018 18:00:00 26,2 12,6 1017,7 -
21.04.2018 17:00:00 26,5 12,5 1018,0 -
21.04.2018 16:00:00 27,1 13,0 1018,7 -
21.04.2018 15:00:00 26,5 12,2 1019,4 -
21.04.2018 14:00:00 25,7 13,5 1020,0 0,0
21.04.2018 13:00:00 25,0 14,7 1020,5 -
21.04.2018 12:00:00 23,1 13,8 1021,0 -
21.04.2018 11:00:00 21,6 12,4 1021,3 -
21.04.2018 10:00:00 20,0 12,7 1021,2 -
21.04.2018 09:00:00 17,5 10,6 1021,1 -
21.04.2018 08:00:00 15,0 9,5 1021,0 0,0
21.04.2018 07:00:00 13,2 8,0 1020,7 -
21.04.2018 06:00:00 13,5 8,1 1020,7 -
21.04.2018 05:00:00 14,6 - 1020,8 -
21.04.2018 04:00:00 14,8 8,5 1020,8 -
21.04.2018 03:00:00 15,2 8,8 1020,9 -
21.04.2018 02:00:00 15,3 9,2 1021,1 0,0
21.04.2018 01:00:00 16,0 9,4 1021,4 -
21.04.2018 00:00:00 16,8 9,9 1021,4 -
20.04.2018 23:00:00 17,7 10,3 1021,5 -
20.04.2018 22:00:00 19,5 10,7 1021,6 -
20.04.2018 21:00:00 21,4 10,2 1021,3 -
20.04.2018 20:00:00 24,4 11,3 1020,9 0,0
20.04.2018 19:00:00 26,0 10,2 1020,9 -
20.04.2018 18:00:00 26,2 11,5 1021,4 -
20.04.2018 17:00:00 26,8 13,5 1021,9 -
20.04.2018 16:00:00 26,3 12,7 1022,5 -
20.04.2018 15:00:00 25,7 12,8 1023,3 -
20.04.2018 14:00:00 25,4 12,9 1023,9 -
20.04.2018 13:00:00 24,7 13,2 1024,6 -
20.04.2018 12:00:00 22,3 11,0 1025,2 -
20.04.2018 11:00:00 20,5 11,6 1025,5 -
20.04.2018 10:00:00 19,6 10,5 1025,3 -
20.04.2018 09:00:00 16,3 10,1 1025,3 -
20.04.2018 08:00:00 13,7 8,5 1025,3 0,0
20.04.2018 07:00:00 12,1 7,8 1025,0 -
20.04.2018 06:00:00 12,3 7,9 1024,7 -
20.04.2018 05:00:00 12,6 8,2 1024,9 -
20.04.2018 04:00:00 12,9 8,3 1025,1 -
20.04.2018 03:00:00 13,4 8,6 1025,5 -
20.04.2018 02:00:00 13,9 8,7 1025,7 0,0
20.04.2018 01:00:00 14,7 8,8 1025,8 -
20.04.2018 00:00:00 15,2 8,8 1025,7 -
19.04.2018 23:00:00 16,2 9,3 1025,9 -
19.04.2018 22:00:00 18,4 9,4 1026,0 -
19.04.2018 21:00:00 21,0 10,4 1025,8 -
19.04.2018 20:00:00 22,2 9,7 1025,6 0,0
19.04.2018 19:00:00 23,3 10,3 1025,7 -
19.04.2018 18:00:00 23,6 10,6 1026,0 -
19.04.2018 17:00:00 23,8 10,8 1026,2 -
19.04.2018 16:00:00 24,1 11,4 1026,8 -
19.04.2018 15:00:00 23,6 11,9 1027,3 -
19.04.2018 14:00:00 22,8 11,5 1027,7 0,0
19.04.2018 13:00:00 22,2 10,0 1028,4 -
19.04.2018 12:00:00 20,9 11,5 1028,9 -
19.04.2018 11:00:00 19,4 10,1 1029,2 -
19.04.2018 10:00:00 17,3 9,4 1029,3 -
19.04.2018 09:00:00 14,7 7,9 1029,3 -
19.04.2018 08:00:00 11,9 6,3 1029,3 0,0
19.04.2018 07:00:00 10,3 5,2 1029,0 -
19.04.2018 06:00:00 10,3 5,0 1028,9 -
19.04.2018 05:00:00 10,9 4,9 1029,0 -
19.04.2018 04:00:00 11,2 4,8 1029,2 -
19.04.2018 03:00:00 12,0 5,3 1029,0 -
19.04.2018 02:00:00 12,4 5,5 1029,2 0,0
19.04.2018 01:00:00 12,9 6,0 1029,2 -
19.04.2018 00:00:00 13,8 6,3 1029,0 -
18.04.2018 23:00:00 15,2 7,2 1028,9 -
18.04.2018 22:00:00 16,5 6,5 1028,5 -
18.04.2018 21:00:00 19,0 7,0 1027,7 -
18.04.2018 20:00:00 20,5 7,8 1027,4 0,0
18.04.2018 19:00:00 21,7 8,2 1027,7 -
18.04.2018 18:00:00 22,2 8,3 1027,6 -
18.04.2018 17:00:00 22,8 8,8 1027,7 -
18.04.2018 16:00:00 23,0 9,0 1027,9 -
18.04.2018 15:00:00 23,4 9,7 1028,3 -
18.04.2018 14:00:00 22,8 10,5 1028,5 0,0
18.04.2018 13:00:00 22,7 10,8 1028,7 -
18.04.2018 12:00:00 21,7 12,8 1028,8 -
18.04.2018 11:00:00 20,5 12,7 1028,7 -
18.04.2018 10:00:00 17,5 11,9 1028,4 -
18.04.2018 09:00:00 15,8 11,7 1028,2 -
18.04.2018 08:00:00 13,7 10,5 1027,8 0,0
18.04.2018 07:00:00 12,3 9,3 1027,0 -
18.04.2018 06:00:00 12,8 9,8 1026,6 -
18.04.2018 05:00:00 13,4 9,8 1026,5 -
18.04.2018 04:00:00 14,3 10,3 1026,4 -
18.04.2018 03:00:00 14,4 10,6 1026,3 -
18.04.2018 02:00:00 14,3 10,7 1026,3 0,0
18.04.2018 01:00:00 14,4 10,4 1026,0 -
18.04.2018 00:00:00 15,2 10,3 1025,4 -
17.04.2018 23:00:00 16,2 10,2 1025,0 -
17.04.2018 22:00:00 17,5 9,6 1024,5 -
17.04.2018 21:00:00 19,5 10,7 1023,5 -
17.04.2018 20:00:00 20,5 11,1 1022,5 0,0
17.04.2018 19:00:00 21,5 11,8 1022,0 -
17.04.2018 18:00:00 22,3 12,2 1021,6 -
17.04.2018 17:00:00 22,7 12,3 1021,7 -
17.04.2018 16:00:00 23,3 13,1 1021,4 -
17.04.2018 15:00:00 23,4 14,3 1021,6 -
17.04.2018 14:00:00 22,0 - 1022,0 -
17.04.2018 13:00:00 20,4 13,3 1022,0 -
17.04.2018 12:00:00 18,6 13,8 1022,1 -
17.04.2018 11:00:00 16,4 12,5 1022,2 -
17.04.2018 10:00:00 15,9 12,0 1021,5 -
17.04.2018 09:00:00 14,6 11,3 1020,8 -
17.04.2018 08:00:00 14,0 10,9 1019,6 0,0
17.04.2018 07:00:00 13,8 10,7 1018,8 -
17.04.2018 06:00:00 13,5 10,5 1018,0 -
17.04.2018 05:00:00 12,9 9,9 1017,5 -
17.04.2018 04:00:00 14,4 11,0 1017,1 -
17.04.2018 03:00:00 14,2 11,0 1016,6 -
17.04.2018 02:00:00 14,5 10,9 1016,0 0,0
17.04.2018 01:00:00 14,7 11,1 1015,4 -

tt = temperature
td = dewpoint
ppp = reduced air pressure
rr = precipitation

Next stations